Cologne, Minnesota
Current Conditions -  °F | °C
As of 3:34 PM on Sunday 23 Nov 2014 (Local Time) from KGYL Reporting Station
Light Rain Light Rain  
Wind Chill: 34°   Ceiling: 3900
Heat Index: 40°   Visibility: 7mi
Dew Point: 39°   Wind: 10mph
Humidity: 95%   Direction: 290°WNW
Pressure: 29.42"   Gusts: NA
Location:  44.77°N, 93.78°W
Report Text: KGYL 232134Z AUTO 29009KT 7SM -RA SCT012 SCT023 BKN039 05/04 A2942 RMK AO2 P0001 T00450037
Loading
Personal Weather Stations






























Interactive Weather Map New forecast layout! Learn more

10-Day Weather Forecast

Advertisements
Track Severe Weather on mobile